Jarvisburg, North Carolina
Current Conditions -  °F | °C
As of 12:15 AM on Tuesday 23 Dec 2014 (Local Time) from KONX Reporting Station
Haze Haze  
Wind Chill:   Ceiling: 100
Heat Index:   Visibility: 1.2mi
Dew Point:   Wind: 5mph
Humidity: 95%   Direction: 280°W
Pressure: 29.98"   Gusts: NA
Location:  36.2°N, 75.87°W
Report Text: KONX 230515Z AUTO 28004KT 1 1/4SM BR OVC001 09/08 A2998 RMK AO2 T00860079
Loading
Personal Weather Stations






























Interactive Weather Map New forecast layout! Learn more

10-Day Weather Forecast

Advertisements
Track Severe Weather on mobile